Richland Center, WI

3:22 AM CDT on August 19, 2017 (GMT -0500)
Ash Creek | | Change Station
Active Advisory: Special Statement

Elev 732 ft 43.33 °N, 90.39 °W | Updated 7 minutes ago

Partly Cloudy
Partly Cloudy
57.0 °F
Feels Like 57.0 °F
N
0.0
Wind Variable Wind from NE
Gusts 0.0 mph

Today
High -- | Low -- °F
--% Chance of Precip.
Yesterday
High -- | Low -- °F
Precip. -- in
Pressure 29.92 in
Visibility 0.8 miles
Clouds
Dew Point 57 °F
Humidity 98%
Rainfall 0.00 in
Snow Depth Not available.
6:11 AM 7:57 PM
Waning Crescent, 8% visible
SPECI KLNR 190810Z AUTO 00000KT 3/4SM BR VV002 14/14 A2992 RMK AO2 T01440144
Pressure 29.92 in
Visibility 0.8 miles
Clouds
Dew Point 57 °F
Humidity 98%
Rainfall 0.00 in
Snow Depth Not available.
6:11 AM 7:57 PM
Waning Crescent, 8% visible
SPECI KLNR 190810Z AUTO 00000KT 3/4SM BR VV002 14/14 A2992 RMK AO2 T01440144

Get Your Daily Forecast Email!

Thanks for signing up!

Be on the lookout for a verification email in your inbox.

You'll start receiving severe weather alerts in your inbox..

×

10-Day Weather Forecast

Almanac

Astronomy

Aug. 19, 2017 Rise Set
Actual Time
Civil Twilight
Nautical Twilight
Astronomical Twilight
Moon
Length of Visible Light
Length of Day
Tomorrow will be .
, % of the Moon is Illuminated

Today's Extremes

State Highs State Lows

Community

WunderPhotos

Category 6

Welcome to Category 6. This is the collective home for Weather Underground's featured writeups by Dr. Jeff Masters (right), Bob Henson (left), Chris Burt, and other regular contributors.

Nearby

Air Quality

  Air Quality AQ Index Pollutant
Not available.

Snow Depth

Station Depth Elevation

Earthquake Activity

City Distance Mag. Time & Date
Minimum magnitude displayed is 2.5.

Coastal Water Temperatures

Place Temperature

Stations

Nearby Weather Stations

Station Location Temp. Windchill Dew Point Humidity Wind Precip. Elev Updated Type
                   

Watches & Warnings

Special Statement
Issued: 2:33 AM CDT Aug. 19, 2017 – National Weather Service

... Areas of dense fog this morning...

Areas of dense fog has developed in the river valleys. This fog
is reducing visibilities to less than a half mile. Those
traveling early this morning should be on the look out for areas
of dense fog. This fog should gradually dissipate around 9 am.

Slow down and use your low beam headlights.


Boyne

233 am CDT Sat Aug 19 2017

... Areas of dense fog this morning...

Areas of dense fog has developed in the river valleys. This fog
is reducing visibilities to less than a half mile. Those
traveling early this morning should be on the look out for areas
of dense fog. This fog should gradually dissipate around 9 am.

Slow down and use your low beam headlights.


Boyne